Time;durP1;ratioP1;P1;durP2;ratioP2;P2;SDS_P1;SDS_P2;PMS_P1;PMS_P2;Temp;Humidity;BMP_temperature;BMP_pressure;BME280_temperature;BME280_humidity;BME280_pressure;Samples;Min_cycle;Max_cycle;Signal;HPM_P1;HPM_P2
2023/07/27 00:01:50;;;;;;;0.77;0.50;;;15.80;99.90;;;;;;4888073;29;20551;-67
2023/07/27 00:04:18;;;;;;;3.63;1.17;;;15.80;99.90;;;;;;4888336;29;20486;-67
2023/07/27 00:06:46;;;;;;;2.22;0.50;;;15.80;99.90;;;;;;4888059;29;20104;-66
2023/07/27 00:09:14;;;;;;;3.20;0.88;;;15.80;99.90;;;;;;4888553;29;20057;-66
2023/07/27 00:11:41;;;;;;;2.33;0.40;;;15.70;99.90;;;;;;4891115;29;20045;-66
2023/07/27 00:14:08;;;;;;;5.88;0.80;;;15.70;99.90;;;;;;4891713;29;20523;-66
2023/07/27 00:16:34;;;;;;;1.63;0.47;;;15.70;99.90;;;;;;4892843;29;20132;-66
2023/07/27 00:19:02;;;;;;;3.38;0.52;;;15.60;99.90;;;;;;4890044;29;20045;-67
2023/07/27 00:21:29;;;;;;;2.47;0.80;;;15.60;99.90;;;;;;4892171;29;20376;-67
2023/07/27 00:23:56;;;;;;;1.75;0.60;;;15.60;99.90;;;;;;4891671;29;20056;-67
2023/07/27 00:26:23;;;;;;;2.30;0.98;;;15.50;99.90;;;;;;4891790;29;20506;-66
2023/07/27 00:28:50;;;;;;;3.70;0.60;;;15.50;99.90;;;;;;4890564;29;20079;-67
2023/07/27 00:31:17;;;;;;;4.43;1.13;;;15.50;99.90;;;;;;4891128;29;20437;-66
2023/07/27 00:33:44;;;;;;;2.75;0.55;;;15.40;99.90;;;;;;4889490;29;20056;-66
2023/07/27 00:36:11;;;;;;;1.38;0.43;;;15.40;99.90;;;;;;4888538;29;20036;-66
2023/07/27 00:38:37;;;;;;;1.88;0.95;;;15.40;99.90;;;;;;4891829;29;20068;-66
2023/07/27 00:41:05;;;;;;;4.72;1.17;;;15.40;99.90;;;;;;4891129;29;20045;-66
2023/07/27 00:43:32;;;;;;;0.68;0.63;;;15.30;99.90;;;;;;4893060;29;20048;-66
2023/07/27 00:45:59;;;;;;;2.38;0.88;;;15.30;99.90;;;;;;4874460;29;20151;-66
2023/07/27 00:48:27;;;;;;;0.75;0.57;;;15.30;99.90;;;;;;4868688;29;20049;-67
2023/07/27 00:50:54;;;;;;;4.85;0.60;;;15.30;99.90;;;;;;4889657;29;20100;-67
2023/07/27 00:53:22;;;;;;;3.60;1.00;;;15.30;99.90;;;;;;4891343;29;20056;-66
2023/07/27 00:55:50;;;;;;;2.83;0.43;;;15.20;99.90;;;;;;4890598;29;20854;-68
2023/07/27 00:58:17;;;;;;;0.82;0.43;;;15.20;99.90;;;;;;4890664;29;20286;-66
2023/07/27 01:00:44;;;;;;;2.00;0.50;;;15.20;99.90;;;;;;4891252;29;20100;-66
2023/07/27 01:03:11;;;;;;;3.13;0.75;;;15.20;99.90;;;;;;4890758;29;20092;-65
2023/07/27 01:05:38;;;;;;;2.53;0.55;;;15.20;99.90;;;;;;4889346;29;20052;-67
2023/07/27 01:08:06;;;;;;;2.65;0.63;;;15.20;99.90;;;;;;4891473;29;20044;-67
2023/07/27 01:10:57;;;;;;;1.35;0.52;;;15.10;99.90;;;;;;4873633;29;20450;-66
2023/07/27 01:13:36;;;;;;;4.68;0.70;;;15.10;99.90;;;;;;4890503;29;20049;-67
2023/07/27 01:16:15;;;;;;;2.95;1.20;;;15.00;99.90;;;;;;4890128;29;20040;-66
2023/07/27 01:19:00;;;;;;;1.85;0.77;;;15.00;99.90;;;;;;4889330;29;20199;-65
2023/07/27 01:21:36;;;;;;;3.55;0.82;;;15.00;99.90;;;;;;4888587;29;20072;-66
2023/07/27 01:24:22;;;;;;;2.70;1.35;;;14.90;99.90;;;;;;4889224;29;20147;-66
2023/07/27 01:27:04;;;;;;;1.08;0.50;;;14.80;99.90;;;;;;4889053;29;20047;-65
2023/07/27 01:29:52;;;;;;;2.72;0.77;;;14.80;99.90;;;;;;4889811;29;20083;-66
2023/07/27 01:32:22;;;;;;;5.70;1.00;;;14.80;99.90;;;;;;4890414;29;20530;-65
2023/07/27 01:34:54;;;;;;;1.90;0.83;;;14.70;99.90;;;;;;4888739;29;20075;-67
2023/07/27 01:37:22;;;;;;;13.07;2.58;;;14.70;99.90;;;;;;4891641;29;20559;-66
2023/07/27 01:39:52;;;;;;;4.18;1.75;;;14.70;99.90;;;;;;4890153;29;20094;-66
2023/07/27 01:42:19;;;;;;;1.98;0.77;;;14.60;99.90;;;;;;4888960;29;20149;-66
2023/07/27 01:44:48;;;;;;;3.33;0.95;;;14.60;99.90;;;;;;4866431;29;20167;-67
2023/07/27 01:47:17;;;;;;;3.83;1.00;;;14.60;99.90;;;;;;4887169;29;20044;-66
2023/07/27 01:49:45;;;;;;;2.10;0.93;;;14.60;99.90;;;;;;4890189;29;20052;-66
2023/07/27 01:52:15;;;;;;;2.28;0.90;;;14.50;99.90;;;;;;4868235;29;20551;-66
2023/07/27 01:54:43;;;;;;;3.15;0.75;;;14.50;99.90;;;;;;4875276;29;20530;-66
2023/07/27 01:57:11;;;;;;;2.10;0.52;;;14.50;99.90;;;;;;4889558;29;20127;-66
2023/07/27 01:59:39;;;;;;;2.70;0.85;;;14.50;99.90;;;;;;4887683;29;20064;-65
2023/07/27 02:02:06;;;;;;;1.95;0.73;;;14.50;99.90;;;;;;4890408;29;20064;-65
2023/07/27 02:04:34;;;;;;;3.45;0.68;;;14.50;99.90;;;;;;4889205;29;20048;-66
2023/07/27 02:07:01;;;;;;;1.52;0.52;;;14.50;99.90;;;;;;4890221;29;20049;-66
2023/07/27 02:09:27;;;;;;;3.03;1.55;;;14.40;99.90;;;;;;4888085;29;20071;-66
2023/07/27 02:12:00;;;;;;;1.50;0.75;;;14.50;99.90;;;;;;4867962;29;20056;-66
2023/07/27 02:14:39;;;;;;;3.38;1.30;;;14.40;99.90;;;;;;4869140;29;20048;-66
2023/07/27 02:17:16;;;;;;;2.03;0.60;;;14.40;99.90;;;;;;4888145;29;20048;-66
2023/07/27 02:19:45;;;;;;;5.78;1.27;;;14.40;99.90;;;;;;4888604;29;20060;-65
2023/07/27 02:22:12;;;;;;;3.33;1.00;;;14.40;99.90;;;;;;4873100;29;20053;-67
2023/07/27 02:24:40;;;;;;;3.15;0.88;;;14.40;99.90;;;;;;4888063;29;20108;-66
2023/07/27 02:27:07;;;;;;;2.80;0.70;;;14.30;99.90;;;;;;4873544;29;20161;-65
2023/07/27 02:29:34;;;;;;;3.70;0.60;;;14.40;99.90;;;;;;4889746;29;20834;-67
2023/07/27 02:32:01;;;;;;;3.53;0.65;;;14.30;99.90;;;;;;4871165;29;20062;-65
2023/07/27 02:34:28;;;;;;;3.80;0.80;;;14.30;99.90;;;;;;4888339;29;20051;-66
2023/07/27 02:36:54;;;;;;;4.65;1.45;;;14.30;99.90;;;;;;4868336;29;20048;-67
2023/07/27 02:39:22;;;;;;;3.25;0.80;;;14.30;99.90;;;;;;4871599;29;20087;-65
2023/07/27 02:41:48;;;;;;;2.97;0.88;;;14.20;99.90;;;;;;4887109;29;20127;-65
2023/07/27 02:44:19;;;;;;;2.33;1.05;;;14.20;99.90;;;;;;4889409;29;20082;-67
2023/07/27 02:46:48;;;;;;;2.22;0.60;;;14.20;99.90;;;;;;4866741;29;20092;-66
2023/07/27 02:49:15;;;;;;;3.03;1.08;;;14.20;99.90;;;;;;4888680;29;20084;-65
2023/07/27 02:51:43;;;;;;;3.42;0.60;;;14.20;99.90;;;;;;4863545;29;20461;-67
2023/07/27 02:54:10;;;;;;;3.90;0.90;;;14.20;99.90;;;;;;4865098;29;20053;-66
2023/07/27 02:56:37;;;;;;;4.97;1.30;;;14.20;99.90;;;;;;4889584;29;20044;-67
2023/07/27 02:59:04;;;;;;;1.48;0.90;;;14.10;99.90;;;;;;4888193;29;20135;-65
2023/07/27 03:01:36;;;;;;;3.03;0.50;;;14.10;99.90;;;;;;4880938;29;21254;-65
2023/07/27 03:04:07;;;;;;;3.75;0.90;;;14.10;99.90;;;;;;4873103;29;20128;-65
2023/07/27 03:06:35;;;;;;;6.25;1.20;;;14.10;99.90;;;;;;4867723;29;20053;-67
2023/07/27 03:09:04;;;;;;;2.17;1.00;;;14.10;99.90;;;;;;4887772;29;20135;-66
2023/07/27 03:11:31;;;;;;;3.40;0.90;;;14.10;99.90;;;;;;4888738;29;20076;-66
2023/07/27 03:13:58;;;;;;;2.38;0.82;;;14.10;99.90;;;;;;4887543;29;20045;-66
2023/07/27 03:16:25;;;;;;;2.15;1.02;;;14.10;99.90;;;;;;4888517;29;20107;-66
2023/07/27 03:18:52;;;;;;;2.10;1.45;;;14.10;99.90;;;;;;4870324;29;20547;-65
2023/07/27 03:21:19;;;;;;;4.60;2.28;;;14.10;99.90;;;;;;4887734;29;20056;-66
2023/07/27 03:23:50;;;;;;;3.30;1.40;;;14.10;99.90;;;;;;4887842;29;20061;-67
2023/07/27 03:26:17;;;;;;;4.13;1.58;;;14.10;99.90;;;;;;4872024;29;20132;-66
2023/07/27 03:28:44;;;;;;;3.92;0.98;;;14.10;99.90;;;;;;4887713;29;20551;-66
2023/07/27 03:31:23;;;;;;;1.95;1.52;;;14.10;99.90;;;;;;4872229;29;20044;-65
2023/07/27 03:33:51;;;;;;;3.30;1.45;;;14.10;99.90;;;;;;4869831;29;20053;-67
2023/07/27 03:36:19;;;;;;;3.67;1.15;;;14.20;99.90;;;;;;4866587;29;20526;-66
2023/07/27 03:38:46;;;;;;;1.95;0.95;;;14.20;99.90;;;;;;4871955;29;20064;-65
2023/07/27 03:41:14;;;;;;;3.33;1.30;;;14.20;99.90;;;;;;4868432;29;20688;-67
2023/07/27 03:43:41;;;;;;;2.33;1.13;;;14.20;99.90;;;;;;4872569;29;20056;-66
2023/07/27 03:46:08;;;;;;;8.63;2.60;;;14.10;99.90;;;;;;4891708;29;20044;-66
2023/07/27 03:48:35;;;;;;;2.38;1.40;;;14.10;99.90;;;;;;4891785;29;20040;-66
2023/07/27 03:51:02;;;;;;;1.08;0.85;;;14.10;99.90;;;;;;4892861;29;20052;-66
2023/07/27 03:53:30;;;;;;;6.63;2.72;;;14.10;99.90;;;;;;4891693;29;20056;-65
2023/07/27 03:56:00;;;;;;;8.98;0.80;;;14.00;99.90;;;;;;4874112;29;20567;-67
2023/07/27 03:58:31;;;;;;;3.65;1.10;;;14.00;99.90;;;;;;4892285;29;20100;-65
2023/07/27 04:00:59;;;;;;;1.48;0.77;;;14.10;99.90;;;;;;4869821;29;20052;-67
2023/07/27 04:03:25;;;;;;;1.55;0.95;;;14.10;99.90;;;;;;4891149;29;20112;-67
2023/07/27 04:05:53;;;;;;;4.10;1.15;;;14.10;99.90;;;;;;4891753;29;20044;-66
2023/07/27 04:08:20;;;;;;;2.70;0.93;;;14.10;99.90;;;;;;4868312;29;20625;-66
2023/07/27 04:10:47;;;;;;;1.33;0.60;;;14.20;99.90;;;;;;4892161;29;20056;-67
2023/07/27 04:13:14;;;;;;;1.95;0.82;;;14.20;99.90;;;;;;4877769;29;20056;-65
2023/07/27 04:15:42;;;;;;;1.48;0.77;;;14.30;99.90;;;;;;4891805;29;20044;-65
2023/07/27 04:18:09;;;;;;;3.13;0.90;;;14.30;99.90;;;;;;4890495;29;20048;-66
2023/07/27 04:20:36;;;;;;;4.20;0.68;;;14.40;99.90;;;;;;4892430;29;20045;-65
2023/07/27 04:23:03;;;;;;;6.45;1.90;;;14.40;99.90;;;;;;4863780;29;20569;-65
2023/07/27 04:25:30;;;;;;;3.15;1.00;;;14.40;99.90;;;;;;4891847;29;20139;-67
2023/07/27 04:27:57;;;;;;;1.65;1.00;;;14.50;99.90;;;;;;4890137;29;20045;-65
2023/07/27 04:30:24;;;;;;;3.53;1.10;;;14.50;99.90;;;;;;4890496;29;20142;-65
2023/07/27 04:32:51;;;;;;;3.38;0.73;;;14.50;99.90;;;;;;4873326;29;20135;-65
2023/07/27 04:35:18;;;;;;;6.30;0.95;;;14.50;99.90;;;;;;4892167;29;20127;-66
2023/07/27 04:37:45;;;;;;;1.20;1.05;;;14.50;99.90;;;;;;4891414;29;20044;-67
2023/07/27 04:40:13;;;;;;;6.55;1.15;;;14.50;99.90;;;;;;4891084;29;20087;-67
2023/07/27 04:42:40;;;;;;;3.90;0.80;;;14.60;99.90;;;;;;4891695;29;20052;-66
2023/07/27 04:45:08;;;;;;;1.10;0.60;;;14.60;99.90;;;;;;4891177;29;20075;-66
2023/07/27 04:47:35;;;;;;;5.68;1.13;;;14.60;99.90;;;;;;4891911;29;20453;-65
2023/07/27 04:50:04;;;;;;;1.42;0.65;;;14.60;99.90;;;;;;4890440;29;20045;-66
2023/07/27 04:52:30;;;;;;;1.30;0.68;;;14.60;99.90;;;;;;4882783;29;20089;-66
2023/07/27 04:54:57;;;;;;;4.45;1.70;;;14.60;99.90;;;;;;4888340;29;20056;-66
2023/07/27 04:57:24;;;;;;;7.40;1.52;;;14.70;99.90;;;;;;4890457;29;20047;-66
2023/07/27 04:59:51;;;;;;;2.08;1.02;;;14.70;99.90;;;;;;4873592;29;20127;-66
2023/07/27 05:02:18;;;;;;;3.55;0.70;;;14.70;99.90;;;;;;4874007;29;20056;-67
2023/07/27 05:04:45;;;;;;;3.72;2.45;;;14.70;99.90;;;;;;4890851;29;20124;-66
2023/07/27 05:07:12;;;;;;;11.80;2.05;;;14.80;99.90;;;;;;4891651;29;20048;-65
2023/07/27 05:09:39;;;;;;;2.15;0.88;;;14.80;99.90;;;;;;4890518;29;20523;-67
2023/07/27 05:12:06;;;;;;;1.42;0.82;;;14.80;99.90;;;;;;4892289;29;20052;-66
2023/07/27 05:14:33;;;;;;;2.42;1.02;;;14.80;99.90;;;;;;4891333;29;20403;-65
2023/07/27 05:17:00;;;;;;;1.02;0.90;;;14.80;99.90;;;;;;4890639;29;20048;-68
2023/07/27 05:19:27;;;;;;;1.52;0.98;;;14.80;99.90;;;;;;4891719;29;20115;-66
2023/07/27 05:21:54;;;;;;;1.80;1.17;;;14.90;99.90;;;;;;4891087;29;20143;-66
2023/07/27 05:24:20;;;;;;;4.22;1.70;;;14.90;99.90;;;;;;4890690;29;20080;-67
2023/07/27 05:26:47;;;;;;;3.65;1.10;;;14.90;99.90;;;;;;4891373;29;20048;-65
2023/07/27 05:29:14;;;;;;;4.38;1.25;;;15.00;99.90;;;;;;4891330;29;20155;-66
2023/07/27 05:31:41;;;;;;;0.95;0.75;;;15.00;99.90;;;;;;4890800;29;20142;-66
2023/07/27 05:34:09;;;;;;;1.80;0.82;;;15.00;99.90;;;;;;4890272;29;20044;-66
2023/07/27 05:36:36;;;;;;;1.20;0.70;;;15.00;99.90;;;;;;4891299;29;20059;-66
2023/07/27 05:39:03;;;;;;;3.20;0.80;;;15.00;99.90;;;;;;4889541;29;20490;-67
2023/07/27 05:41:30;;;;;;;2.53;0.98;;;15.10;99.90;;;;;;4891575;29;20063;-65
2023/07/27 05:43:57;;;;;;;2.03;1.60;;;15.10;99.90;;;;;;4890624;29;20472;-67
2023/07/27 05:46:24;;;;;;;2.72;0.95;;;15.10;99.90;;;;;;4890913;29;20427;-66
2023/07/27 05:48:51;;;;;;;1.10;0.88;;;15.20;99.90;;;;;;4890021;29;20171;-65
2023/07/27 05:51:18;;;;;;;1.35;0.77;;;15.20;99.90;;;;;;4889759;29;20136;-65
2023/07/27 05:53:45;;;;;;;2.30;1.30;;;15.30;99.90;;;;;;4889250;29;20048;-67
2023/07/27 05:56:12;;;;;;;4.50;1.15;;;15.30;99.90;;;;;;4889426;29;20036;-66
2023/07/27 05:58:41;;;;;;;6.03;0.80;;;15.40;99.90;;;;;;4889311;29;20171;-66
2023/07/27 06:01:08;;;;;;;2.60;0.60;;;15.40;99.90;;;;;;4890765;29;20137;-67
2023/07/27 06:03:35;;;;;;;2.85;1.42;;;15.40;99.90;;;;;;4890456;29;20483;-66
2023/07/27 06:06:03;;;;;;;2.22;0.88;;;15.50;99.90;;;;;;4890282;29;20044;-66
2023/07/27 06:08:30;;;;;;;2.75;1.02;;;15.50;99.90;;;;;;4885582;29;20041;-67
2023/07/27 06:11:01;;;;;;;2.05;1.35;;;15.60;99.90;;;;;;4890549;29;20084;-67
2023/07/27 06:13:29;;;;;;;2.60;0.77;;;15.60;99.90;;;;;;4890005;29;20048;-67
2023/07/27 06:15:57;;;;;;;7.30;0.80;;;15.60;99.90;;;;;;4890482;29;20159;-66
2023/07/27 06:18:24;;;;;;;1.08;0.57;;;15.70;99.90;;;;;;4886998;29;20056;-66
2023/07/27 06:20:51;;;;;;;3.10;0.82;;;15.70;99.90;;;;;;4889950;29;20566;-66
2023/07/27 06:23:18;;;;;;;1.20;0.47;;;15.80;99.90;;;;;;4887767;29;20044;-67
2023/07/27 06:25:46;;;;;;;1.15;0.82;;;15.90;99.90;;;;;;4890249;29;20053;-66
2023/07/27 06:28:13;;;;;;;2.78;1.20;;;15.90;99.90;;;;;;4887670;29;20100;-66
2023/07/27 06:30:40;;;;;;;0.80;0.70;;;15.90;99.90;;;;;;4889379;29;20048;-67
2023/07/27 06:33:07;;;;;;;2.63;1.52;;;16.00;99.90;;;;;;4890020;29;20131;-66
2023/07/27 06:35:34;;;;;;;2.08;1.60;;;16.00;99.90;;;;;;4889197;29;20051;-67
2023/07/27 06:38:01;;;;;;;7.38;2.22;;;16.00;99.90;;;;;;4888662;29;20049;-67
2023/07/27 06:40:28;;;;;;;3.95;1.08;;;16.10;99.90;;;;;;4889134;29;20055;-67
2023/07/27 06:42:55;;;;;;;2.85;1.05;;;16.20;99.90;;;;;;4890307;29;20468;-65
2023/07/27 06:45:21;;;;;;;2.65;1.17;;;16.30;99.90;;;;;;4889276;29;20044;-67
2023/07/27 06:47:49;;;;;;;5.05;1.73;;;16.30;99.90;;;;;;4890083;29;20564;-66
2023/07/27 06:50:16;;;;;;;8.80;1.20;;;16.40;99.90;;;;;;4889480;29;20052;-66
2023/07/27 06:52:43;;;;;;;3.15;0.93;;;16.50;99.90;;;;;;4888890;29;20056;-66
2023/07/27 06:55:10;;;;;;;3.35;0.93;;;16.50;99.90;;;;;;4888028;29;20044;-67
2023/07/27 06:57:37;;;;;;;1.88;1.45;;;16.50;99.90;;;;;;4889784;29;20394;-65
2023/07/27 07:00:06;;;;;;;3.30;1.50;;;16.50;99.90;;;;;;4888917;29;20063;-66
2023/07/27 07:02:33;;;;;;;2.90;2.00;;;16.60;99.90;;;;;;4889300;29;20058;-66
2023/07/27 07:05:00;;;;;;;3.00;1.05;;;16.60;99.90;;;;;;4889354;29;20064;-66
2023/07/27 07:07:27;;;;;;;7.85;1.52;;;16.70;99.90;;;;;;4889320;29;20079;-66
2023/07/27 07:09:54;;;;;;;2.80;1.02;;;16.80;99.90;;;;;;4887995;29;20048;-67
2023/07/27 07:12:20;;;;;;;1.08;0.90;;;16.80;99.90;;;;;;4889254;29;20076;-67
2023/07/27 07:14:47;;;;;;;4.63;1.55;;;16.90;99.90;;;;;;4888851;29;20049;-66
2023/07/27 07:17:14;;;;;;;4.07;1.55;;;16.90;99.90;;;;;;4888396;29;20044;-65
2023/07/27 07:19:42;;;;;;;8.20;1.48;;;17.00;99.90;;;;;;4888783;29;20104;-66
2023/07/27 07:22:09;;;;;;;2.65;1.33;;;17.00;99.90;;;;;;4889122;29;20044;-67
2023/07/27 07:24:36;;;;;;;2.88;1.60;;;17.10;99.90;;;;;;4888442;29;20479;-64
2023/07/27 07:27:03;;;;;;;5.40;1.23;;;17.20;99.90;;;;;;4889699;29;20045;-66
2023/07/27 07:29:30;;;;;;;2.95;1.10;;;17.20;99.90;;;;;;4888842;29;20072;-66
2023/07/27 07:31:57;;;;;;;3.50;1.90;;;17.30;99.90;;;;;;4888825;29;20085;-67
2023/07/27 07:34:24;;;;;;;2.65;1.27;;;17.40;99.90;;;;;;4888499;29;20696;-65
2023/07/27 07:36:51;;;;;;;3.17;1.27;;;17.50;99.90;;;;;;4888722;29;20104;-65
2023/07/27 07:39:18;;;;;;;3.13;1.67;;;17.60;99.90;;;;;;4887784;29;20052;-66
2023/07/27 07:41:45;;;;;;;1.75;1.00;;;17.50;99.90;;;;;;4889762;29;20044;-65
2023/07/27 07:44:12;;;;;;;1.92;1.10;;;17.40;99.90;;;;;;4888117;29;20044;-66
2023/07/27 07:46:40;;;;;;;2.17;1.27;;;17.30;99.90;;;;;;4889975;29;20044;-65
2023/07/27 07:49:07;;;;;;;4.28;1.40;;;17.30;99.90;;;;;;4872947;29;20424;-65
2023/07/27 07:51:35;;;;;;;3.03;1.45;;;17.40;99.90;;;;;;4888735;29;20135;-67
2023/07/27 07:54:02;;;;;;;1.80;1.38;;;17.50;99.90;;;;;;4887308;29;20139;-66
2023/07/27 07:56:28;;;;;;;4.95;1.83;;;17.50;99.90;;;;;;4886166;29;20067;-65
2023/07/27 07:58:55;;;;;;;4.40;1.65;;;17.60;99.90;;;;;;4888860;29;20155;-66
2023/07/27 08:01:22;;;;;;;2.47;1.10;;;17.50;99.90;;;;;;4888469;29;20093;-66
2023/07/27 08:03:49;;;;;;;3.97;1.40;;;17.50;99.90;;;;;;4889814;29;20048;-66
2023/07/27 08:06:17;;;;;;;3.28;1.40;;;17.40;99.90;;;;;;4886394;29;20411;-65
2023/07/27 08:08:45;;;;;;;3.67;1.67;;;17.20;99.90;;;;;;4887681;29;20063;-66
2023/07/27 08:11:11;;;;;;;2.88;1.48;;;17.10;99.90;;;;;;4889139;29;20049;-65
2023/07/27 08:13:39;;;;;;;2.70;1.50;;;17.10;99.90;;;;;;4888279;29;20051;-65
2023/07/27 08:16:06;;;;;;;3.13;1.67;;;17.00;99.90;;;;;;4889066;29;20062;-65
2023/07/27 08:18:33;;;;;;;2.58;1.35;;;17.10;99.90;;;;;;4888541;29;20052;-66
2023/07/27 08:21:04;;;;;;;3.72;2.10;;;17.00;99.90;;;;;;4888598;29;20546;-65
2023/07/27 08:23:32;;;;;;;2.33;1.15;;;16.90;99.90;;;;;;4887903;29;20048;-65
2023/07/27 08:26:01;;;;;;;3.08;1.45;;;16.90;99.90;;;;;;4888679;29;20072;-66
2023/07/27 08:28:28;;;;;;;5.50;1.45;;;16.90;99.90;;;;;;4885957;29;20044;-65
2023/07/27 08:30:55;;;;;;;5.20;1.98;;;17.10;99.90;;;;;;4889476;29;20356;-67
2023/07/27 08:33:22;;;;;;;4.25;1.63;;;17.40;99.90;;;;;;4891859;29;20080;-66
2023/07/27 08:35:49;;;;;;;4.70;1.55;;;17.60;99.90;;;;;;4892147;29;20075;-65
2023/07/27 08:38:17;;;;;;;7.15;1.35;;;17.70;99.90;;;;;;4891564;29;20426;-65
2023/07/27 08:40:58;;;;;;;2.25;1.80;;;17.80;99.90;;;;;;4891807;29;20055;-66
2023/07/27 08:43:26;;;;;;;3.45;1.88;;;17.60;99.90;;;;;;4891000;29;20068;-65
2023/07/27 08:45:54;;;;;;;3.33;0.75;;;17.80;99.90;;;;;;4892137;29;20036;-67
2023/07/27 08:48:24;;;;;;;1.92;1.45;;;17.90;99.90;;;;;;4891997;29;20479;-66
2023/07/27 08:50:52;;;;;;;3.13;1.30;;;18.10;99.90;;;;;;4892357;29;20045;-66
2023/07/27 08:53:19;;;;;;;4.82;1.27;;;18.10;99.90;;;;;;4890585;29;20570;-68
2023/07/27 08:55:46;;;;;;;3.83;1.83;;;18.20;99.90;;;;;;4891934;29;20056;-65
2023/07/27 08:58:13;;;;;;;2.63;1.55;;;18.10;99.90;;;;;;4890464;29;20048;-66
2023/07/27 09:00:40;;;;;;;3.47;2.08;;;18.10;99.90;;;;;;4892471;29;20427;-67
2023/07/27 09:03:07;;;;;;;1.95;1.27;;;18.10;99.90;;;;;;4891397;29;20777;-66
2023/07/27 09:05:43;;;;;;;4.72;1.40;;;18.20;99.90;;;;;;4890946;29;20058;-66
2023/07/27 09:08:14;;;;;;;6.03;1.45;;;18.30;99.90;;;;;;4889482;29;20044;-67
2023/07/27 09:10:43;;;;;;;5.80;1.50;;;18.30;99.90;;;;;;4889570;29;20068;-66
2023/07/27 09:13:10;;;;;;;3.58;1.27;;;18.50;99.90;;;;;;4891837;29;20048;-66
2023/07/27 09:15:44;;;;;;;2.00;1.52;;;18.60;99.90;;;;;;4889261;29;20084;-65
2023/07/27 09:18:13;;;;;;;3.42;1.30;;;18.70;99.90;;;;;;4892034;29;20542;-66
2023/07/27 09:20:41;;;;;;;2.65;1.10;;;18.80;99.90;;;;;;4890553;29;20104;-66
2023/07/27 09:23:08;;;;;;;4.60;1.98;;;18.80;99.90;;;;;;4890844;29;20040;-65
2023/07/27 09:25:39;;;;;;;4.43;1.77;;;18.60;99.90;;;;;;4893024;29;20051;-66
2023/07/27 09:28:06;;;;;;;2.42;1.05;;;18.40;99.90;;;;;;4891162;29;20522;-67
2023/07/27 09:30:35;;;;;;;3.95;1.20;;;18.40;99.90;;;;;;4890460;29;20658;-65
2023/07/27 09:33:05;;;;;;;0.90;0.88;;;18.30;99.90;;;;;;4889425;29;20071;-65
2023/07/27 09:35:36;;;;;;;1.25;0.57;;;18.30;99.90;;;;;;4890580;29;20430;-65
2023/07/27 09:38:03;;;;;;;4.05;1.15;;;18.30;99.90;;;;;;4886906;29;20410;-66
2023/07/27 09:40:32;;;;;;;1.10;0.93;;;18.30;99.90;;;;;;4891557;29;20123;-66
2023/07/27 09:43:05;;;;;;;2.45;1.83;;;18.30;99.90;;;;;;4889062;29;20120;-65
2023/07/27 09:45:37;;;;;;;1.38;0.80;;;18.60;99.90;;;;;;4890796;29;20032;-65
2023/07/27 09:48:05;;;;;;;2.15;1.02;;;18.70;99.90;;;;;;4890754;29;20058;-65
2023/07/27 09:50:34;;;;;;;2.80;1.50;;;18.80;99.90;;;;;;4890604;29;20193;-66
2023/07/27 09:53:03;;;;;;;5.10;1.33;;;18.80;99.90;;;;;;4890388;29;20077;-68
2023/07/27 09:55:32;;;;;;;2.33;1.17;;;18.70;99.90;;;;;;4889523;29;20051;-66
2023/07/27 09:58:00;;;;;;;3.05;1.90;;;18.50;99.90;;;;;;4890855;29;20131;-65
2023/07/27 10:00:27;;;;;;;3.10;1.30;;;18.70;99.90;;;;;;4890003;29;20133;-66
2023/07/27 10:02:54;;;;;;;1.80;0.88;;;18.90;99.90;;;;;;4890221;29;20057;-67
2023/07/27 10:05:39;;;;;;;2.10;1.27;;;18.90;99.90;;;;;;4889299;29;20044;-66
2023/07/27 10:08:07;;;;;;;2.47;1.60;;;18.70;99.90;;;;;;4888642;29;20053;-65
2023/07/27 10:10:33;;;;;;;2.58;1.02;;;18.70;99.90;;;;;;4890108;29;20104;-65
2023/07/27 10:13:25;;;;;;;1.08;0.63;;;18.60;99.90;;;;;;4890530;29;20045;-66
2023/07/27 10:15:56;;;;;;;1.20;0.63;;;18.90;99.90;;;;;;4885864;29;20060;-66
2023/07/27 10:18:28;;;;;;;1.75;0.63;;;19.30;99.90;;;;;;4890577;29;20071;-67
2023/07/27 10:21:20;;;;;;;1.75;1.17;;;19.60;99.90;;;;;;4890255;29;20100;-66
2023/07/27 10:24:01;;;;;;;3.03;1.23;;;19.80;99.90;;;;;;4889673;29;20084;-66
2023/07/27 10:26:47;;;;;;;1.50;1.08;;;19.70;99.90;;;;;;4890004;29;20108;-66
2023/07/27 10:29:15;;;;;;;3.33;1.20;;;19.80;99.90;;;;;;4888262;29;20306;-66
2023/07/27 10:31:44;;;;;;;3.25;1.20;;;19.80;99.90;;;;;;4889496;29;20148;-65
2023/07/27 10:34:16;;;;;;;3.03;1.88;;;19.60;99.90;;;;;;4889109;29;20613;-66
2023/07/27 10:36:59;;;;;;;4.38;1.02;;;19.70;99.90;;;;;;4889318;29;20052;-67
2023/07/27 10:39:47;;;;;;;1.52;1.15;;;19.50;99.90;;;;;;4888837;29;20159;-66
2023/07/27 10:42:19;;;;;;;2.78;0.70;;;19.60;99.90;;;;;;4889593;29;20044;-65
2023/07/27 10:44:54;;;;;;;1.92;1.02;;;19.60;99.90;;;;;;4889697;29;20052;-68
2023/07/27 10:47:38;;;;;;;2.53;1.20;;;19.40;99.90;;;;;;4888697;29;20052;-66
2023/07/27 10:50:05;;;;;;;2.03;0.80;;;19.20;99.90;;;;;;4888443;29;20092;-65
2023/07/27 10:52:34;;;;;;;18.13;2.83;;;18.90;99.90;;;;;;4889971;29;20049;-66
2023/07/27 10:55:03;;;;;;;2.30;0.88;;;18.80;99.90;;;;;;4889262;29;20045;-66
2023/07/27 10:57:32;;;;;;;2.30;1.27;;;18.90;99.90;;;;;;4888864;29;20127;-66
2023/07/27 11:00:00;;;;;;;3.22;2.10;;;18.80;99.90;;;;;;4888897;29;20053;-66
2023/07/27 11:02:29;;;;;;;2.30;1.08;;;18.60;99.90;;;;;;4889269;29;20127;-66
2023/07/27 11:04:57;;;;;;;6.78;1.52;;;18.50;99.90;;;;;;4887145;29;20052;-67
2023/07/27 11:07:26;;;;;;;1.88;1.10;;;18.70;99.90;;;;;;4889547;29;20094;-66
2023/07/27 11:09:53;;;;;;;2.15;1.20;;;19.10;99.90;;;;;;4889383;29;20048;-66
2023/07/27 11:12:19;;;;;;;1.08;1.00;;;19.40;99.90;;;;;;4889280;29;20044;-65
2023/07/27 11:14:46;;;;;;;6.50;1.77;;;19.40;99.90;;;;;;4888700;29;20135;-65
2023/07/27 11:17:14;;;;;;;2.00;0.60;;;19.50;99.90;;;;;;4888958;29;20064;-65
2023/07/27 11:19:42;;;;;;;2.90;1.10;;;19.60;99.90;;;;;;4887034;29;20040;-66
2023/07/27 11:22:10;;;;;;;1.67;0.65;;;19.60;99.90;;;;;;4888341;29;20398;-66
2023/07/27 11:24:40;;;;;;;1.33;0.65;;;19.40;99.90;;;;;;4888849;29;20096;-65
2023/07/27 11:27:10;;;;;;;1.05;0.82;;;19.30;99.90;;;;;;4889495;29;20063;-66
2023/07/27 11:29:43;;;;;;;1.38;0.77;;;19.50;99.90;;;;;;4888192;29;20186;-65
2023/07/27 11:32:10;;;;;;;3.22;0.93;;;19.50;99.90;;;;;;4888364;29;20052;-65
2023/07/27 11:34:37;;;;;;;2.95;1.20;;;19.60;99.90;;;;;;4889685;29;20044;-68
2023/07/27 11:37:04;;;;;;;3.05;1.27;;;19.70;99.90;;;;;;4889139;29;20052;-65
2023/07/27 11:39:32;;;;;;;2.45;1.00;;;20.00;99.90;;;;;;4889451;29;20423;-66
2023/07/27 11:42:09;;;;;;;2.00;0.85;;;20.00;99.90;;;;;;4889189;29;20061;-65
2023/07/27 11:44:36;;;;;;;5.45;1.20;;;19.80;99.90;;;;;;4889499;29;20045;-67
2023/07/27 11:47:03;;;;;;;1.67;1.00;;;19.80;99.90;;;;;;4888139;29;20050;-65
2023/07/27 11:49:30;;;;;;;4.15;1.20;;;19.80;99.90;;;;;;4889294;29;20495;-66
2023/07/27 11:51:58;;;;;;;2.67;0.95;;;20.10;99.90;;;;;;4888332;29;20108;-67
2023/07/27 11:54:27;;;;;;;2.22;1.20;;;20.50;99.90;;;;;;4888143;29;20052;-66
2023/07/27 11:56:56;;;;;;;2.00;0.88;;;20.50;99.90;;;;;;4885757;29;20048;-68
2023/07/27 11:59:23;;;;;;;2.65;1.30;;;20.40;99.90;;;;;;4889078;29;20652;-66
2023/07/27 12:01:51;;;;;;;2.67;1.20;;;20.60;99.90;;;;;;4887599;29;20061;-65
2023/07/27 12:04:19;;;;;;;1.35;0.90;;;20.40;99.90;;;;;;4887543;29;20056;-67
2023/07/27 12:06:47;;;;;;;1.40;1.23;;;20.10;99.90;;;;;;4891795;29;20061;-67
2023/07/27 12:09:14;;;;;;;2.13;1.20;;;20.10;99.90;;;;;;4888332;29;20041;-66
2023/07/27 12:11:43;;;;;;;4.10;1.00;;;20.10;99.90;;;;;;4893692;29;20135;-66
2023/07/27 12:14:10;;;;;;;2.88;1.23;;;20.20;99.90;;;;;;4891677;29;20081;-68
2023/07/27 12:16:37;;;;;;;1.75;0.90;;;20.30;99.90;;;;;;4892986;29;20052;-67
2023/07/27 12:19:07;;;;;;;2.85;1.17;;;20.70;99.90;;;;;;4890955;29;20130;-66
2023/07/27 12:21:35;;;;;;;1.83;1.02;;;20.70;99.90;;;;;;4892103;29;20057;-66
2023/07/27 12:24:10;;;;;;;2.17;1.23;;;20.50;99.90;;;;;;4891888;29;20052;-65
2023/07/27 12:26:40;;;;;;;2.80;0.90;;;20.10;99.90;;;;;;4891010;29;20056;-65
2023/07/27 12:29:09;;;;;;;1.55;0.60;;;20.00;99.90;;;;;;4891558;29;20044;-65
2023/07/27 12:31:39;;;;;;;1.75;0.98;;;20.10;99.90;;;;;;4893182;29;20060;-65
2023/07/27 12:34:09;;;;;;;1.55;0.93;;;20.30;99.90;;;;;;4890003;29;20080;-66
2023/07/27 12:36:36;;;;;;;1.98;0.85;;;20.40;99.90;;;;;;4891782;29;20096;-69
2023/07/27 12:39:03;;;;;;;2.05;0.82;;;20.60;99.90;;;;;;4891001;29;20040;-65
2023/07/27 12:41:30;;;;;;;0.68;0.68;;;20.60;99.90;;;;;;4892144;29;20098;-65
2023/07/27 12:43:57;;;;;;;1.52;0.70;;;20.60;99.90;;;;;;4888865;29;20055;-68
2023/07/27 12:46:24;;;;;;;1.85;1.58;;;20.80;99.90;;;;;;4892640;29;20041;-66
2023/07/27 12:48:52;;;;;;;1.92;0.82;;;20.80;99.90;;;;;;4889225;29;20052;-68
2023/07/27 12:51:18;;;;;;;0.98;0.70;;;20.90;99.90;;;;;;4892415;29;20059;-66
2023/07/27 12:53:45;;;;;;;2.20;0.75;;;20.80;99.90;;;;;;4890089;29;20056;-65